Terminal Aerodrome Forecast
Issued by NWS Albuquerque, NM

Home | Current Version | Previous Version | Text Only | Print | Product List | Glossary On
Versions: 1 2 3 4 5 6 7 8 9 10 11 12 13 14
000
FTUS45 KABQ 162329
TAFABQ
TAF
KABQ 162329Z 1700/1724 25010KT P6SM SCT120
     FM170300 VRB05KT P6SM SCT120
     FM170900 08007KT P6SM FEW120
     FM172000 23007KT P6SM SKC=

USA.gov is the U.S. government's official web portal to all federal, state and local government web resources and services.